Airfield :
LOGIN :

Register | Disclaimer

   EN    FR    IT 

 










Legend :    VFR   Marginal VFR   IFR   Intensive IFR   Very Intensive IFR
Visi :
Ceiling :
>= 8 km
>= 3000ft
5 to 8 km
1000 to 3000 ft
1500m to 5 km
500 to 1000 ft
800 to 1500m
200 to 500 ft
< 800m
< 200 ft
Symbols :   Thunderstorms  Fog  Heavy snow  Heavy precipitations  Wind > 20 kt
SIGMETs :     Misc.  Thunderstorms  Icing  Turbulence  Mountain Waves  Volcanic Ashes






- Airport Elevation : 1 ft


EGCK - Caernarfon

CURRENT METAR :
  • 080350Z AUTO 27040G54KT 3700 RA FEW003/// BKN014/// OVC026/// 06/04 Q0974 RERA

EXPIRED METARs :
  • 080320Z AUTO 25038G51KT 2300 +RA FEW002/// OVC016/// 06/04 Q0975
  • 080250Z AUTO 25037G51KT 1700 +RA SCT002/// OVC024/// 06/04 Q0974
  • 080220Z AUTO 25036G46KT 9999 BKN023/// OVC037/// 07/03 Q0974
  • 080150Z AUTO 25034G48KT 9999 BKN023/// OVC039/// 07/03 Q0974
  • 080120Z AUTO 25033KT 9999 OVC022/// 07/03 Q0974

TAF TAF EGCK
Valid from the 08 at 03:00 until the 08 at 12:00 UTC


080156Z 0803/0812 26025G35KT 9999 SCT020
TEMPO 0803/0812 27030G45KT 5000 SHRA BKN010
PROB30
TEMPO 0803/0812 27040G55KT 3000 +SHRA BKN006 BKN025CB



MET'MAP, your aeronautical weather chart ! - Copyright ORBIFLY December 2007 - Disclaimer

ORBIFLY MET'MAP TEAM :

Programming & Development : Alexandra Zaïnal
Concept & original design : Baudouin d'Aumeries
Assistance for programming : Marc-Olivier Méhu
Technical & hardware support : Manuel Goepfert

Contact : metmap@orbifly.com




SOURCES & CREDITS :

   NOAA